EGNS/IOM METAR and TAF weather

Enter ICAO airport designator
Station Type Date Time Source
EGNS METAR 2020/10/22 02:50 UTC NOAA

EGNS 220250Z 27019KT 240V300 9999 BKN016 10/07 Q0998


Station Type Date Time Source
EGNS Decoded METAR 2020/10/22 02:50 UTC NOAA

Isle Of Man / Ronaldsway Airport, United Kingdom (EGNS) 54-05N 004-38W 0M
Oct 21, 2020 - 10:50 PM EDT / 2020.10.22 0250 UTC
Wind: from the W (270 degrees) at 22 MPH (19 KT) (direction variable):0
Visibility: greater than 7 mile(s):0
Sky conditions: mostly cloudy
Temperature: 50 F (10 C)
Dew Point: 44 F (7 C)
Relative Humidity: 81%
Pressure (altimeter): 29.47 in. Hg (0998 hPa)
ob: EGNS 220250Z 27019KT 240V300 9999 BKN016 10/07 Q0998
cycle: 3

Station Type Date Time Source
EGNS TAF 2019/01/16 05:00 UTC NOAA

TAF EGNS 160500 Z 1606/1615 28020KT 9999 FEW010 BKN025
TEMPO 1606/1609 6000 RA BKN010 PROB30
TEMPO 1613/1615 7000 -SHRA

Example: see airport list